sensor_id;sensor_type;location;lat;lon;timestamp;temperature;humidity
22680;DHT22;11507;44.858;10.374;2022-09-01T00:00:46;20.40;99.90
22680;DHT22;11507;44.858;10.374;2022-09-01T00:03:17;20.30;99.90
22680;DHT22;11507;44.858;10.374;2022-09-01T00:05:43;20.30;99.90
22680;DHT22;11507;44.858;10.374;2022-09-01T00:08:12;20.30;99.90
22680;DHT22;11507;44.858;10.374;2022-09-01T00:10:38;20.30;99.90
22680;DHT22;11507;44.858;10.374;2022-09-01T00:13:05;20.20;99.90
22680;DHT22;11507;44.858;10.374;2022-09-01T00:15:33;20.20;99.90
22680;DHT22;11507;44.858;10.374;2022-09-01T00:18:00;20.10;99.90
22680;DHT22;11507;44.858;10.374;2022-09-01T00:20:26;20.10;99.90
22680;DHT22;11507;44.858;10.374;2022-09-01T00:22:53;20.10;99.90
22680;DHT22;11507;44.858;10.374;2022-09-01T00:25:20;20.10;99.90
22680;DHT22;11507;44.858;10.374;2022-09-01T00:27:48;20.00;99.90
22680;DHT22;11507;44.858;10.374;2022-09-01T00:30:14;20.10;99.90
22680;DHT22;11507;44.858;10.374;2022-09-01T00:32:40;20.10;99.90
22680;DHT22;11507;44.858;10.374;2022-09-01T00:35:13;20.10;99.90
22680;DHT22;11507;44.858;10.374;2022-09-01T00:37:39;20.20;99.90
22680;DHT22;11507;44.858;10.374;2022-09-01T00:40:06;20.20;99.90
22680;DHT22;11507;44.858;10.374;2022-09-01T00:42:32;20.20;99.90
22680;DHT22;11507;44.858;10.374;2022-09-01T00:44:58;20.20;99.90
22680;DHT22;11507;44.858;10.374;2022-09-01T00:47:24;20.30;99.90
22680;DHT22;11507;44.858;10.374;2022-09-01T00:49:50;20.20;99.90
22680;DHT22;11507;44.858;10.374;2022-09-01T00:52:35;20.20;99.90
22680;DHT22;11507;44.858;10.374;2022-09-01T00:55:11;20.20;99.90
22680;DHT22;11507;44.858;10.374;2022-09-01T00:57:38;20.20;99.90
22680;DHT22;11507;44.858;10.374;2022-09-01T01:00:19;20.30;99.90
22680;DHT22;11507;44.858;10.374;2022-09-01T01:02:47;20.30;99.90
22680;DHT22;11507;44.858;10.374;2022-09-01T01:05:15;20.30;99.90
22680;DHT22;11507;44.858;10.374;2022-09-01T01:07:43;20.40;99.90
22680;DHT22;11507;44.858;10.374;2022-09-01T01:10:12;20.40;99.90
22680;DHT22;11507;44.858;10.374;2022-09-01T01:12:39;20.50;99.90
22680;DHT22;11507;44.858;10.374;2022-09-01T01:15:07;20.50;99.90
22680;DHT22;11507;44.858;10.374;2022-09-01T01:17:33;20.50;99.90
22680;DHT22;11507;44.858;10.374;2022-09-01T01:19:59;20.50;99.90
22680;DHT22;11507;44.858;10.374;2022-09-01T01:25:41;20.60;99.90
22680;DHT22;11507;44.858;10.374;2022-09-01T01:28:14;20.50;99.90
22680;DHT22;11507;44.858;10.374;2022-09-01T01:30:53;20.50;99.90
22680;DHT22;11507;44.858;10.374;2022-09-01T01:33:21;20.50;99.90
22680;DHT22;11507;44.858;10.374;2022-09-01T01:35:48;20.50;99.90
22680;DHT22;11507;44.858;10.374;2022-09-01T01:38:17;20.40;99.90
22680;DHT22;11507;44.858;10.374;2022-09-01T01:40:45;20.30;99.90
22680;DHT22;11507;44.858;10.374;2022-09-01T01:43:11;20.30;99.90
22680;DHT22;11507;44.858;10.374;2022-09-01T01:45:39;20.30;99.90
22680;DHT22;11507;44.858;10.374;2022-09-01T01:48:05;20.20;99.90
22680;DHT22;11507;44.858;10.374;2022-09-01T01:50:36;20.20;99.90
22680;DHT22;11507;44.858;10.374;2022-09-01T01:53:05;20.10;99.90
22680;DHT22;11507;44.858;10.374;2022-09-01T01:55:31;20.10;99.90
22680;DHT22;11507;44.858;10.374;2022-09-01T01:57:59;20.10;99.90
22680;DHT22;11507;44.858;10.374;2022-09-01T02:00:30;20.00;99.90
22680;DHT22;11507;44.858;10.374;2022-09-01T02:03:00;20.00;99.90
22680;DHT22;11507;44.858;10.374;2022-09-01T02:05:32;20.00;99.90
22680;DHT22;11507;44.858;10.374;2022-09-01T02:08:06;20.00;99.90
22680;DHT22;11507;44.858;10.374;2022-09-01T02:10:44;20.00;99.90
22680;DHT22;11507;44.858;10.374;2022-09-01T02:13:13;20.10;99.90
22680;DHT22;11507;44.858;10.374;2022-09-01T02:15:52;20.00;99.90
22680;DHT22;11507;44.858;10.374;2022-09-01T02:18:26;20.00;99.90
22680;DHT22;11507;44.858;10.374;2022-09-01T02:20:57;20.00;99.90
22680;DHT22;11507;44.858;10.374;2022-09-01T02:23:25;19.90;99.90
22680;DHT22;11507;44.858;10.374;2022-09-01T02:25:54;19.90;99.90
22680;DHT22;11507;44.858;10.374;2022-09-01T02:28:22;19.90;99.90
22680;DHT22;11507;44.858;10.374;2022-09-01T02:30:50;19.90;99.90
22680;DHT22;11507;44.858;10.374;2022-09-01T02:33:21;20.00;99.90
22680;DHT22;11507;44.858;10.374;2022-09-01T02:35:51;19.90;99.90
22680;DHT22;11507;44.858;10.374;2022-09-01T02:38:18;19.90;99.90
22680;DHT22;11507;44.858;10.374;2022-09-01T02:40:48;19.90;99.90
22680;DHT22;11507;44.858;10.374;2022-09-01T02:43:16;19.90;99.90
22680;DHT22;11507;44.858;10.374;2022-09-01T02:45:51;19.80;99.90
22680;DHT22;11507;44.858;10.374;2022-09-01T02:48:20;19.80;99.90
22680;DHT22;11507;44.858;10.374;2022-09-01T02:50:48;19.90;99.90
22680;DHT22;11507;44.858;10.374;2022-09-01T02:53:14;19.90;99.90
22680;DHT22;11507;44.858;10.374;2022-09-01T02:55:43;19.90;99.90
22680;DHT22;11507;44.858;10.374;2022-09-01T02:58:10;19.90;99.90
22680;DHT22;11507;44.858;10.374;2022-09-01T03:00:42;19.90;99.90
22680;DHT22;11507;44.858;10.374;2022-09-01T03:03:09;19.90;99.90
22680;DHT22;11507;44.858;10.374;2022-09-01T03:05:38;19.90;99.90
22680;DHT22;11507;44.858;10.374;2022-09-01T03:08:07;19.90;99.90
22680;DHT22;11507;44.858;10.374;2022-09-01T03:10:38;19.90;99.90
22680;DHT22;11507;44.858;10.374;2022-09-01T03:13:13;19.80;99.90
22680;DHT22;11507;44.858;10.374;2022-09-01T03:15:41;19.80;99.90
22680;DHT22;11507;44.858;10.374;2022-09-01T03:18:09;19.70;99.90
22680;DHT22;11507;44.858;10.374;2022-09-01T03:20:38;19.70;99.90
22680;DHT22;11507;44.858;10.374;2022-09-01T03:23:09;19.70;99.90
22680;DHT22;11507;44.858;10.374;2022-09-01T03:25:36;19.70;99.90
22680;DHT22;11507;44.858;10.374;2022-09-01T03:28:04;19.70;99.90
22680;DHT22;11507;44.858;10.374;2022-09-01T03:30:33;19.70;99.90
22680;DHT22;11507;44.858;10.374;2022-09-01T03:33:02;19.70;99.90
22680;DHT22;11507;44.858;10.374;2022-09-01T03:35:29;19.80;99.90
22680;DHT22;11507;44.858;10.374;2022-09-01T03:37:59;19.80;99.90
22680;DHT22;11507;44.858;10.374;2022-09-01T03:40:29;19.80;99.90
22680;DHT22;11507;44.858;10.374;2022-09-01T03:42:59;19.80;99.90
22680;DHT22;11507;44.858;10.374;2022-09-01T03:45:27;19.80;99.90
22680;DHT22;11507;44.858;10.374;2022-09-01T03:47:54;19.90;99.90
22680;DHT22;11507;44.858;10.374;2022-09-01T03:50:22;19.90;99.90
22680;DHT22;11507;44.858;10.374;2022-09-01T03:52:54;19.90;99.90
22680;DHT22;11507;44.858;10.374;2022-09-01T03:55:24;20.00;99.90
22680;DHT22;11507;44.858;10.374;2022-09-01T03:57:55;20.00;99.90
22680;DHT22;11507;44.858;10.374;2022-09-01T04:00:24;20.00;99.90
22680;DHT22;11507;44.858;10.374;2022-09-01T04:02:53;20.10;99.90
22680;DHT22;11507;44.858;10.374;2022-09-01T04:05:22;20.10;99.90
22680;DHT22;11507;44.858;10.374;2022-09-01T04:07:50;20.10;99.90
22680;DHT22;11507;44.858;10.374;2022-09-01T04:10:17;20.10;99.90
22680;DHT22;11507;44.858;10.374;2022-09-01T04:12:44;20.10;99.90
22680;DHT22;11507;44.858;10.374;2022-09-01T04:15:12;20.10;99.90
22680;DHT22;11507;44.858;10.374;2022-09-01T04:17:40;20.10;99.90
22680;DHT22;11507;44.858;10.374;2022-09-01T04:20:25;20.10;99.90
22680;DHT22;11507;44.858;10.374;2022-09-01T04:22:51;20.00;99.90
22680;DHT22;11507;44.858;10.374;2022-09-01T04:25:19;20.00;99.90
22680;DHT22;11507;44.858;10.374;2022-09-01T04:27:52;19.90;99.90
22680;DHT22;11507;44.858;10.374;2022-09-01T04:30:22;19.90;99.90
22680;DHT22;11507;44.858;10.374;2022-09-01T04:32:54;19.90;99.90
22680;DHT22;11507;44.858;10.374;2022-09-01T04:35:23;19.80;99.90
22680;DHT22;11507;44.858;10.374;2022-09-01T04:37:59;19.70;99.90
22680;DHT22;11507;44.858;10.374;2022-09-01T04:40:25;19.60;99.90
22680;DHT22;11507;44.858;10.374;2022-09-01T04:42:53;19.50;99.90
22680;DHT22;11507;44.858;10.374;2022-09-01T04:45:19;19.50;99.90
22680;DHT22;11507;44.858;10.374;2022-09-01T04:47:48;19.50;99.90
22680;DHT22;11507;44.858;10.374;2022-09-01T04:50:16;19.40;99.90
22680;DHT22;11507;44.858;10.374;2022-09-01T04:52:46;19.30;99.90
22680;DHT22;11507;44.858;10.374;2022-09-01T04:55:27;19.30;99.90
22680;DHT22;11507;44.858;10.374;2022-09-01T04:57:57;19.20;99.90
22680;DHT22;11507;44.858;10.374;2022-09-01T05:00:25;19.20;99.90
22680;DHT22;11507;44.858;10.374;2022-09-01T05:02:58;19.20;99.90
22680;DHT22;11507;44.858;10.374;2022-09-01T05:05:43;19.20;99.90
22680;DHT22;11507;44.858;10.374;2022-09-01T05:08:11;19.20;99.90
22680;DHT22;11507;44.858;10.374;2022-09-01T05:10:45;19.20;99.90
22680;DHT22;11507;44.858;10.374;2022-09-01T05:13:24;19.30;99.90
22680;DHT22;11507;44.858;10.374;2022-09-01T05:16:01;19.30;99.90
22680;DHT22;11507;44.858;10.374;2022-09-01T05:18:28;19.40;99.90
22680;DHT22;11507;44.858;10.374;2022-09-01T05:20:57;19.40;99.90
22680;DHT22;11507;44.858;10.374;2022-09-01T05:23:24;19.50;99.90
22680;DHT22;11507;44.858;10.374;2022-09-01T05:25:51;19.60;99.90
22680;DHT22;11507;44.858;10.374;2022-09-01T05:28:20;19.70;99.90
22680;DHT22;11507;44.858;10.374;2022-09-01T05:30:50;19.80;99.90
22680;DHT22;11507;44.858;10.374;2022-09-01T05:33:19;19.90;99.90
22680;DHT22;11507;44.858;10.374;2022-09-01T05:35:56;19.90;99.90
22680;DHT22;11507;44.858;10.374;2022-09-01T05:38:27;20.00;99.90
22680;DHT22;11507;44.858;10.374;2022-09-01T05:40:58;20.10;99.90
22680;DHT22;11507;44.858;10.374;2022-09-01T05:43:29;20.20;99.90
22680;DHT22;11507;44.858;10.374;2022-09-01T05:45:59;20.30;99.90
22680;DHT22;11507;44.858;10.374;2022-09-01T05:48:29;20.30;99.90
22680;DHT22;11507;44.858;10.374;2022-09-01T05:50:57;20.40;99.90
22680;DHT22;11507;44.858;10.374;2022-09-01T05:53:26;20.50;99.90
22680;DHT22;11507;44.858;10.374;2022-09-01T05:55:53;20.60;99.90
22680;DHT22;11507;44.858;10.374;2022-09-01T05:58:25;20.70;99.90
22680;DHT22;11507;44.858;10.374;2022-09-01T06:00:54;20.80;99.90
22680;DHT22;11507;44.858;10.374;2022-09-01T06:03:23;20.80;99.90
22680;DHT22;11507;44.858;10.374;2022-09-01T06:05:50;20.90;99.90
22680;DHT22;11507;44.858;10.374;2022-09-01T06:08:23;20.90;99.90
22680;DHT22;11507;44.858;10.374;2022-09-01T06:10:51;21.00;99.90
22680;DHT22;11507;44.858;10.374;2022-09-01T06:13:21;21.10;99.90
22680;DHT22;11507;44.858;10.374;2022-09-01T06:15:51;21.10;99.90
22680;DHT22;11507;44.858;10.374;2022-09-01T06:18:22;21.20;99.90
22680;DHT22;11507;44.858;10.374;2022-09-01T06:20:55;21.30;99.90
22680;DHT22;11507;44.858;10.374;2022-09-01T06:23:22;21.40;99.90
22680;DHT22;11507;44.858;10.374;2022-09-01T06:25:48;21.50;99.90
22680;DHT22;11507;44.858;10.374;2022-09-01T06:28:18;21.60;99.90
22680;DHT22;11507;44.858;10.374;2022-09-01T06:30:47;21.80;99.90
22680;DHT22;11507;44.858;10.374;2022-09-01T06:33:14;21.80;99.90
22680;DHT22;11507;44.858;10.374;2022-09-01T06:35:45;21.80;99.90
22680;DHT22;11507;44.858;10.374;2022-09-01T06:38:13;21.90;99.90
22680;DHT22;11507;44.858;10.374;2022-09-01T06:40:45;22.00;99.90
22680;DHT22;11507;44.858;10.374;2022-09-01T06:43:14;22.10;99.90
22680;DHT22;11507;44.858;10.374;2022-09-01T06:45:47;22.20;99.90
22680;DHT22;11507;44.858;10.374;2022-09-01T06:48:14;22.30;99.90
22680;DHT22;11507;44.858;10.374;2022-09-01T06:50:41;22.50;99.90
22680;DHT22;11507;44.858;10.374;2022-09-01T06:53:09;22.60;99.90
22680;DHT22;11507;44.858;10.374;2022-09-01T06:55:37;22.80;99.90
22680;DHT22;11507;44.858;10.374;2022-09-01T06:58:06;22.90;99.90
22680;DHT22;11507;44.858;10.374;2022-09-01T07:00:37;23.10;99.90
22680;DHT22;11507;44.858;10.374;2022-09-01T07:03:10;23.40;99.90
22680;DHT22;11507;44.858;10.374;2022-09-01T07:05:53;23.70;99.90
22680;DHT22;11507;44.858;10.374;2022-09-01T07:08:33;24.20;99.90
22680;DHT22;11507;44.858;10.374;2022-09-01T07:11:16;24.60;99.90
22680;DHT22;11507;44.858;10.374;2022-09-01T07:13:58;24.90;99.90
22680;DHT22;11507;44.858;10.374;2022-09-01T07:16:28;25.10;99.90
22680;DHT22;11507;44.858;10.374;2022-09-01T07:18:56;25.20;99.90
22680;DHT22;11507;44.858;10.374;2022-09-01T07:21:27;25.50;99.90
22680;DHT22;11507;44.858;10.374;2022-09-01T07:23:54;25.90;99.90
22680;DHT22;11507;44.858;10.374;2022-09-01T07:26:23;26.10;99.90
22680;DHT22;11507;44.858;10.374;2022-09-01T07:28:49;26.40;99.90
22680;DHT22;11507;44.858;10.374;2022-09-01T07:31:17;26.50;99.90
22680;DHT22;11507;44.858;10.374;2022-09-01T07:33:46;26.80;99.90
22680;DHT22;11507;44.858;10.374;2022-09-01T07:36:18;26.90;99.90
22680;DHT22;11507;44.858;10.374;2022-09-01T07:38:44;26.70;99.90
22680;DHT22;11507;44.858;10.374;2022-09-01T07:41:11;26.70;99.90
22680;DHT22;11507;44.858;10.374;2022-09-01T07:43:43;26.60;99.90
22680;DHT22;11507;44.858;10.374;2022-09-01T07:46:29;26.50;99.90
22680;DHT22;11507;44.858;10.374;2022-09-01T07:49:00;26.60;99.90
22680;DHT22;11507;44.858;10.374;2022-09-01T07:51:28;26.40;99.90
22680;DHT22;11507;44.858;10.374;2022-09-01T07:53:57;26.50;99.90
22680;DHT22;11507;44.858;10.374;2022-09-01T07:56:24;26.40;99.90
22680;DHT22;11507;44.858;10.374;2022-09-01T07:58:52;26.50;99.90
22680;DHT22;11507;44.858;10.374;2022-09-01T08:01:23;26.40;99.90
22680;DHT22;11507;44.858;10.374;2022-09-01T08:03:59;26.50;99.90
22680;DHT22;11507;44.858;10.374;2022-09-01T08:06:28;26.60;99.90
22680;DHT22;11507;44.858;10.374;2022-09-01T08:08:57;26.80;99.90
22680;DHT22;11507;44.858;10.374;2022-09-01T08:11:27;26.80;99.90
22680;DHT22;11507;44.858;10.374;2022-09-01T08:13:55;26.80;99.90
22680;DHT22;11507;44.858;10.374;2022-09-01T08:16:29;26.90;99.90
22680;DHT22;11507;44.858;10.374;2022-09-01T08:18:57;26.90;99.90
22680;DHT22;11507;44.858;10.374;2022-09-01T08:21:32;26.90;99.90
22680;DHT22;11507;44.858;10.374;2022-09-01T08:24:05;26.90;99.90
22680;DHT22;11507;44.858;10.374;2022-09-01T08:26:34;26.90;99.90
22680;DHT22;11507;44.858;10.374;2022-09-01T08:29:02;27.10;99.90
22680;DHT22;11507;44.858;10.374;2022-09-01T08:31:34;27.10;99.90
22680;DHT22;11507;44.858;10.374;2022-09-01T08:34:01;27.20;99.90
22680;DHT22;11507;44.858;10.374;2022-09-01T08:36:30;27.10;99.90
22680;DHT22;11507;44.858;10.374;2022-09-01T08:38:57;27.00;99.90
22680;DHT22;11507;44.858;10.374;2022-09-01T08:41:42;27.10;99.90
22680;DHT22;11507;44.858;10.374;2022-09-01T08:47:11;26.90;99.90
22680;DHT22;11507;44.858;10.374;2022-09-01T08:49:40;26.90;99.90
22680;DHT22;11507;44.858;10.374;2022-09-01T08:53:08;26.80;99.90
22680;DHT22;11507;44.858;10.374;2022-09-01T08:55:43;27.10;99.90
22680;DHT22;11507;44.858;10.374;2022-09-01T08:58:16;27.40;99.90
22680;DHT22;11507;44.858;10.374;2022-09-01T09:01:30;27.90;99.90
22680;DHT22;11507;44.858;10.374;2022-09-01T09:07:09;28.20;99.90
22680;DHT22;11507;44.858;10.374;2022-09-01T09:09:49;28.50;99.90
22680;DHT22;11507;44.858;10.374;2022-09-01T09:12:33;28.60;99.90
22680;DHT22;11507;44.858;10.374;2022-09-01T09:18:00;29.10;99.90
22680;DHT22;11507;44.858;10.374;2022-09-01T09:20:31;29.20;99.90
22680;DHT22;11507;44.858;10.374;2022-09-01T09:22:57;29.30;99.90
22680;DHT22;11507;44.858;10.374;2022-09-01T09:25:23;29.70;99.90
22680;DHT22;11507;44.858;10.374;2022-09-01T09:27:50;29.80;99.90
22680;DHT22;11507;44.858;10.374;2022-09-01T09:30:25;30.00;99.00
22680;DHT22;11507;44.858;10.374;2022-09-01T09:35:42;30.10;99.60
22680;DHT22;11507;44.858;10.374;2022-09-01T09:41:24;30.30;98.10
22680;DHT22;11507;44.858;10.374;2022-09-01T09:44:20;30.70;96.90
22680;DHT22;11507;44.858;10.374;2022-09-01T09:46:47;30.70;95.60
22680;DHT22;11507;44.858;10.374;2022-09-01T09:49:29;30.70;96.50
22680;DHT22;11507;44.858;10.374;2022-09-01T09:54:32;30.80;97.20
22680;DHT22;11507;44.858;10.374;2022-09-01T10:02:27;32.40;94.60
22680;DHT22;11507;44.858;10.374;2022-09-01T10:04:58;32.50;90.70
22680;DHT22;11507;44.858;10.374;2022-09-01T10:07:34;32.70;90.80
22680;DHT22;11507;44.858;10.374;2022-09-01T10:10:07;32.40;91.10
22680;DHT22;11507;44.858;10.374;2022-09-01T10:12:52;32.20;92.30
22680;DHT22;11507;44.858;10.374;2022-09-01T10:15:27;32.00;92.50
22680;DHT22;11507;44.858;10.374;2022-09-01T10:17:54;31.80;91.40
22680;DHT22;11507;44.858;10.374;2022-09-01T10:20:25;31.50;92.40
22680;DHT22;11507;44.858;10.374;2022-09-01T10:22:52;31.30;94.00
22680;DHT22;11507;44.858;10.374;2022-09-01T10:25:30;31.20;93.40
22680;DHT22;11507;44.858;10.374;2022-09-01T10:28:05;31.10;92.20
22680;DHT22;11507;44.858;10.374;2022-09-01T10:30:33;31.50;93.40
22680;DHT22;11507;44.858;10.374;2022-09-01T10:33:01;31.50;92.50
22680;DHT22;11507;44.858;10.374;2022-09-01T10:35:30;31.50;93.20
22680;DHT22;11507;44.858;10.374;2022-09-01T10:37:59;31.70;93.40
22680;DHT22;11507;44.858;10.374;2022-09-01T10:42:55;32.40;91.00
22680;DHT22;11507;44.858;10.374;2022-09-01T10:45:36;33.10;91.50
22680;DHT22;11507;44.858;10.374;2022-09-01T10:50:51;34.00;86.70
22680;DHT22;11507;44.858;10.374;2022-09-01T10:56:04;33.90;83.40
22680;DHT22;11507;44.858;10.374;2022-09-01T11:04:18;33.70;85.50
22680;DHT22;11507;44.858;10.374;2022-09-01T11:09:26;33.60;87.90
22680;DHT22;11507;44.858;10.374;2022-09-01T11:14:29;34.30;86.00
22680;DHT22;11507;44.858;10.374;2022-09-01T11:20:27;34.50;81.70
22680;DHT22;11507;44.858;10.374;2022-09-01T11:26:00;34.60;82.90
22680;DHT22;11507;44.858;10.374;2022-09-01T11:33:42;33.80;80.90
22680;DHT22;11507;44.858;10.374;2022-09-01T11:41:25;34.00;85.40
22680;DHT22;11507;44.858;10.374;2022-09-01T11:43:55;34.10;82.80
22680;DHT22;11507;44.858;10.374;2022-09-01T11:46:32;34.30;85.90
22680;DHT22;11507;44.858;10.374;2022-09-01T11:49:04;34.80;83.10
22680;DHT22;11507;44.858;10.374;2022-09-01T11:51:44;35.00;80.50
22680;DHT22;11507;44.858;10.374;2022-09-01T11:54:11;35.00;82.70
22680;DHT22;11507;44.858;10.374;2022-09-01T11:56:37;35.30;84.10
22680;DHT22;11507;44.858;10.374;2022-09-01T11:59:03;36.00;81.60
22680;DHT22;11507;44.858;10.374;2022-09-01T12:01:31;35.90;76.80
22680;DHT22;11507;44.858;10.374;2022-09-01T12:04:23;36.20;79.20
22680;DHT22;11507;44.858;10.374;2022-09-01T12:06:58;36.50;76.00
22680;DHT22;11507;44.858;10.374;2022-09-01T12:09:40;36.70;76.00
22680;DHT22;11507;44.858;10.374;2022-09-01T12:12:45;37.00;75.90
22680;DHT22;11507;44.858;10.374;2022-09-01T12:15:22;36.90;74.30
22680;DHT22;11507;44.858;10.374;2022-09-01T12:17:48;37.50;71.70
22680;DHT22;11507;44.858;10.374;2022-09-01T12:20:30;38.20;70.50
22680;DHT22;11507;44.858;10.374;2022-09-01T12:23:00;38.70;67.00
22680;DHT22;11507;44.858;10.374;2022-09-01T12:25:32;38.40;73.10
22680;DHT22;11507;44.858;10.374;2022-09-01T12:28:03;38.60;67.90
22680;DHT22;11507;44.858;10.374;2022-09-01T12:30:31;38.40;69.30
22680;DHT22;11507;44.858;10.374;2022-09-01T12:33:06;38.60;68.30
22680;DHT22;11507;44.858;10.374;2022-09-01T12:35:34;38.70;66.60
22680;DHT22;11507;44.858;10.374;2022-09-01T12:38:22;39.10;67.70
22680;DHT22;11507;44.858;10.374;2022-09-01T12:40:53;39.40;62.40
22680;DHT22;11507;44.858;10.374;2022-09-01T12:43:37;38.50;61.90
22680;DHT22;11507;44.858;10.374;2022-09-01T12:46:05;37.30;62.30
22680;DHT22;11507;44.858;10.374;2022-09-01T12:48:36;37.40;63.80
22680;DHT22;11507;44.858;10.374;2022-09-01T12:51:22;37.90;60.10
22680;DHT22;11507;44.858;10.374;2022-09-01T12:53:53;38.00;61.50
22680;DHT22;11507;44.858;10.374;2022-09-01T12:56:33;38.50;60.70
22680;DHT22;11507;44.858;10.374;2022-09-01T12:59:24;38.70;60.70
22680;DHT22;11507;44.858;10.374;2022-09-01T13:01:52;38.70;61.10
22680;DHT22;11507;44.858;10.374;2022-09-01T13:06:50;37.90;60.60
22680;DHT22;11507;44.858;10.374;2022-09-01T13:09:16;37.40;59.60
22680;DHT22;11507;44.858;10.374;2022-09-01T13:11:43;37.80;63.60
22680;DHT22;11507;44.858;10.374;2022-09-01T13:14:13;38.80;62.80
22680;DHT22;11507;44.858;10.374;2022-09-01T13:16:39;39.20;58.00
22680;DHT22;11507;44.858;10.374;2022-09-01T13:19:05;39.30;60.30
22680;DHT22;11507;44.858;10.374;2022-09-01T13:21:33;40.00;58.70
22680;DHT22;11507;44.858;10.374;2022-09-01T13:24:01;40.20;56.50
22680;DHT22;11507;44.858;10.374;2022-09-01T13:26:28;39.10;56.80
22680;DHT22;11507;44.858;10.374;2022-09-01T13:28:56;38.20;56.30
22680;DHT22;11507;44.858;10.374;2022-09-01T13:31:23;36.90;59.50
22680;DHT22;11507;44.858;10.374;2022-09-01T13:33:49;36.00;60.80
22680;DHT22;11507;44.858;10.374;2022-09-01T13:36:16;35.00;62.80
22680;DHT22;11507;44.858;10.374;2022-09-01T13:38:43;34.00;63.40
22680;DHT22;11507;44.858;10.374;2022-09-01T13:41:09;33.40;65.80
22680;DHT22;11507;44.858;10.374;2022-09-01T13:43:36;33.00;68.10
22680;DHT22;11507;44.858;10.374;2022-09-01T13:46:02;32.40;68.40
22680;DHT22;11507;44.858;10.374;2022-09-01T13:48:28;31.90;68.80
22680;DHT22;11507;44.858;10.374;2022-09-01T13:50:54;32.70;71.90
22680;DHT22;11507;44.858;10.374;2022-09-01T13:53:20;34.40;70.00
22680;DHT22;11507;44.858;10.374;2022-09-01T13:55:47;35.90;65.30
22680;DHT22;11507;44.858;10.374;2022-09-01T13:58:13;37.10;62.80
22680;DHT22;11507;44.858;10.374;2022-09-01T14:00:43;37.20;57.40
22680;DHT22;11507;44.858;10.374;2022-09-01T14:03:18;36.20;59.60
22680;DHT22;11507;44.858;10.374;2022-09-01T14:05:46;36.40;59.60
22680;DHT22;11507;44.858;10.374;2022-09-01T14:08:16;37.30;58.60
22680;DHT22;11507;44.858;10.374;2022-09-01T14:10:44;38.20;57.60
22680;DHT22;11507;44.858;10.374;2022-09-01T14:13:11;38.80;55.20
22680;DHT22;11507;44.858;10.374;2022-09-01T14:15:37;39.30;55.30
22680;DHT22;11507;44.858;10.374;2022-09-01T14:18:04;39.60;54.70
22680;DHT22;11507;44.858;10.374;2022-09-01T14:20:34;39.90;53.20
22680;DHT22;11507;44.858;10.374;2022-09-01T14:23:05;40.20;55.40
22680;DHT22;11507;44.858;10.374;2022-09-01T14:25:31;40.10;53.80
22680;DHT22;11507;44.858;10.374;2022-09-01T14:27:59;40.10;51.70
22680;DHT22;11507;44.858;10.374;2022-09-01T14:30:29;40.20;52.80
22680;DHT22;11507;44.858;10.374;2022-09-01T14:32:55;40.60;51.30
22680;DHT22;11507;44.858;10.374;2022-09-01T14:35:24;40.90;51.30
22680;DHT22;11507;44.858;10.374;2022-09-01T14:37:52;41.40;50.20
22680;DHT22;11507;44.858;10.374;2022-09-01T14:40:20;41.80;48.60
22680;DHT22;11507;44.858;10.374;2022-09-01T14:42:48;41.80;48.60
22680;DHT22;11507;44.858;10.374;2022-09-01T14:45:21;41.50;48.00
22680;DHT22;11507;44.858;10.374;2022-09-01T14:47:51;41.10;49.40
22680;DHT22;11507;44.858;10.374;2022-09-01T14:50:19;41.20;49.40
22680;DHT22;11507;44.858;10.374;2022-09-01T14:52:49;41.50;49.40
22680;DHT22;11507;44.858;10.374;2022-09-01T14:55:16;41.50;48.60
22680;DHT22;11507;44.858;10.374;2022-09-01T14:57:43;41.90;48.60
22680;DHT22;11507;44.858;10.374;2022-09-01T15:00:10;41.70;48.20
22680;DHT22;11507;44.858;10.374;2022-09-01T15:02:39;41.50;48.50
22680;DHT22;11507;44.858;10.374;2022-09-01T15:05:05;41.40;47.50
22680;DHT22;11507;44.858;10.374;2022-09-01T15:07:31;41.30;48.70
22680;DHT22;11507;44.858;10.374;2022-09-01T15:09:57;41.20;47.80
22680;DHT22;11507;44.858;10.374;2022-09-01T15:12:24;40.90;47.70
22680;DHT22;11507;44.858;10.374;2022-09-01T15:14:50;40.70;47.60
22680;DHT22;11507;44.858;10.374;2022-09-01T15:17:16;40.40;48.30
22680;DHT22;11507;44.858;10.374;2022-09-01T15:19:43;40.30;49.50
22680;DHT22;11507;44.858;10.374;2022-09-01T15:22:09;40.30;49.00
22680;DHT22;11507;44.858;10.374;2022-09-01T15:24:37;40.40;48.10
22680;DHT22;11507;44.858;10.374;2022-09-01T15:27:03;39.90;48.30
22680;DHT22;11507;44.858;10.374;2022-09-01T15:29:31;39.90;48.60
22680;DHT22;11507;44.858;10.374;2022-09-01T15:31:59;39.90;47.40
22680;DHT22;11507;44.858;10.374;2022-09-01T15:34:27;39.90;47.00
22680;DHT22;11507;44.858;10.374;2022-09-01T15:36:52;39.90;47.70
22680;DHT22;11507;44.858;10.374;2022-09-01T15:39:18;39.80;47.40
22680;DHT22;11507;44.858;10.374;2022-09-01T15:41:44;39.00;48.50
22680;DHT22;11507;44.858;10.374;2022-09-01T15:44:10;39.00;48.50
22680;DHT22;11507;44.858;10.374;2022-09-01T15:46:36;39.10;49.90
22680;DHT22;11507;44.858;10.374;2022-09-01T15:49:05;38.90;49.60
22680;DHT22;11507;44.858;10.374;2022-09-01T15:51:34;38.50;49.30
22680;DHT22;11507;44.858;10.374;2022-09-01T15:54:09;38.10;50.70
22680;DHT22;11507;44.858;10.374;2022-09-01T15:56:35;37.80;51.20
22680;DHT22;11507;44.858;10.374;2022-09-01T15:59:03;37.10;50.60
22680;DHT22;11507;44.858;10.374;2022-09-01T16:01:33;36.00;52.20
22680;DHT22;11507;44.858;10.374;2022-09-01T16:03:59;35.10;53.80
22680;DHT22;11507;44.858;10.374;2022-09-01T16:06:26;34.20;56.30
22680;DHT22;11507;44.858;10.374;2022-09-01T16:08:52;33.30;57.20
22680;DHT22;11507;44.858;10.374;2022-09-01T16:11:23;32.60;58.70
22680;DHT22;11507;44.858;10.374;2022-09-01T16:13:50;32.10;60.40
22680;DHT22;11507;44.858;10.374;2022-09-01T16:22:03;30.60;64.70
22680;DHT22;11507;44.858;10.374;2022-09-01T16:24:39;30.10;65.70
22680;DHT22;11507;44.858;10.374;2022-09-01T16:27:07;29.80;66.60
22680;DHT22;11507;44.858;10.374;2022-09-01T16:29:53;29.50;68.30
22680;DHT22;11507;44.858;10.374;2022-09-01T16:32:21;29.10;68.90
22680;DHT22;11507;44.858;10.374;2022-09-01T16:34:49;28.80;70.80
22680;DHT22;11507;44.858;10.374;2022-09-01T16:37:21;28.60;70.30
22680;DHT22;11507;44.858;10.374;2022-09-01T16:39:57;28.30;71.50
22680;DHT22;11507;44.858;10.374;2022-09-01T16:47:59;27.80;74.90
22680;DHT22;11507;44.858;10.374;2022-09-01T16:50:44;27.60;73.80